Time;durP1;ratioP1;P1;durP2;ratioP2;P2;SDS_P1;SDS_P2;PMS_P1;PMS_P2;Temp;Humidity;BMP_temperature;BMP_pressure;BME280_temperature;BME280_humidity;BME280_pressure;Samples;Min_cycle;Max_cycle;Signal;HPM_P1;HPM_P2
2022/01/13 05:01:40;;;;;;;38.00;33.90;;;0.20;99.90;;;;;;5410481;23;20533;-67
2022/01/13 05:04:08;;;;;;;40.97;34.80;;;0.30;99.90;;;;;;4979141;28;20458;-67
2022/01/13 05:06:35;;;;;;;41.50;36.17;;;0.30;99.90;;;;;;4978742;28;20970;-67
2022/01/13 05:09:02;;;;;;;45.50;35.43;;;0.30;99.90;;;;;;4978927;28;20458;-66
2022/01/13 05:11:29;;;;;;;38.67;34.03;;;0.40;99.90;;;;;;4978760;28;20486;-67
2022/01/13 05:13:56;;;;;;;38.50;33.37;;;0.40;99.90;;;;;;4978278;28;20478;-66
2022/01/13 05:16:28;;;;;;;40.60;34.50;;;0.40;99.90;;;;;;4978716;28;20513;-66
2022/01/13 05:19:08;;;;;;;38.53;32.60;;;0.40;99.90;;;;;;4978356;28;20902;-66
2022/01/13 05:21:55;;;;;;;39.97;33.60;;;0.40;99.90;;;;;;4978310;28;20475;-67
2022/01/13 05:24:21;;;;;;;41.30;33.20;;;0.40;99.90;;;;;;4978685;28;20502;-66
2022/01/13 05:26:48;;;;;;;38.63;31.90;;;0.40;99.90;;;;;;4978565;28;20463;-67
2022/01/13 05:29:18;;;;;;;38.27;32.57;;;0.40;99.90;;;;;;4978728;28;20566;-66
2022/01/13 05:31:45;;;;;;;41.47;33.23;;;0.50;99.90;;;;;;4978578;28;20633;-67
2022/01/13 05:34:14;;;;;;;41.77;34.53;;;0.40;99.90;;;;;;4978024;28;21027;-67
2022/01/13 05:36:41;;;;;;;37.63;31.83;;;0.40;99.90;;;;;;4978518;28;20462;-67
2022/01/13 05:39:07;;;;;;;47.13;33.10;;;0.40;99.90;;;;;;4978098;28;20459;-67
2022/01/13 05:41:34;;;;;;;39.20;33.53;;;0.40;99.90;;;;;;4978189;28;20478;-68
2022/01/13 05:44:01;;;;;;;39.80;33.10;;;0.40;99.90;;;;;;4978421;28;20480;-67
2022/01/13 05:46:28;;;;;;;41.00;30.57;;;0.50;99.90;;;;;;4979670;28;20490;-67
2022/01/13 05:48:55;;;;;;;36.30;30.83;;;0.50;99.90;;;;;;4978579;28;20455;-67
2022/01/13 05:51:23;;;;;;;38.70;31.90;;;0.40;99.90;;;;;;4977821;28;20474;-67
2022/01/13 05:53:50;;;;;;;37.70;31.27;;;0.40;99.90;;;;;;4978371;28;20474;-67
2022/01/13 05:56:17;;;;;;;40.23;31.97;;;0.50;99.90;;;;;;4978405;28;20823;-67
2022/01/13 05:58:44;;;;;;;40.73;33.67;;;0.50;99.90;;;;;;4978741;28;20463;-67
2022/01/13 06:01:11;;;;;;;38.90;30.97;;;0.50;99.90;;;;;;4977691;28;20965;-67
2022/01/13 06:03:37;;;;;;;38.17;32.50;;;0.40;99.90;;;;;;4979163;28;20482;-67
2022/01/13 06:06:04;;;;;;;41.77;32.37;;;0.40;99.90;;;;;;4978783;28;20470;-67
2022/01/13 06:08:34;;;;;;;43.67;32.30;;;0.50;99.90;;;;;;4978741;28;20462;-67
2022/01/13 06:11:01;;;;;;;41.30;33.80;;;0.40;99.90;;;;;;4978655;28;20510;-66
2022/01/13 06:13:28;;;;;;;39.27;32.90;;;0.40;99.90;;;;;;4978456;28;20479;-67
2022/01/13 06:15:54;;;;;;;39.13;32.57;;;0.50;99.90;;;;;;4978133;28;20942;-67
2022/01/13 06:18:24;;;;;;;38.07;31.33;;;0.60;99.90;;;;;;4978992;28;20466;-68
2022/01/13 06:20:51;;;;;;;40.53;31.80;;;0.60;99.90;;;;;;4978792;28;20479;-68
2022/01/13 06:23:18;;;;;;;38.67;32.00;;;0.60;99.90;;;;;;4980713;28;20461;-68
2022/01/13 06:25:46;;;;;;;38.07;31.30;;;0.60;99.90;;;;;;4978652;28;20573;-69
2022/01/13 06:28:13;;;;;;;39.00;31.90;;;0.70;99.90;;;;;;4979007;28;20455;-69
2022/01/13 06:30:40;;;;;;;37.60;31.73;;;0.80;99.90;;;;;;4981506;28;20479;-68
2022/01/13 06:33:07;;;;;;;37.87;30.47;;;0.80;99.90;;;;;;4977336;28;20462;-69
2022/01/13 06:35:34;;;;;;;36.10;31.03;;;0.90;99.90;;;;;;4977475;28;20457;-69
2022/01/13 06:38:00;;;;;;;37.93;29.87;;;0.80;99.90;;;;;;4977795;28;20490;-69
2022/01/13 06:40:27;;;;;;;36.80;30.17;;;0.80;99.90;;;;;;4977317;28;20470;-69
2022/01/13 06:42:55;;;;;;;36.40;30.20;;;0.70;99.90;;;;;;4976979;28;20454;-69
2022/01/13 06:45:22;;;;;;;35.83;30.33;;;0.70;99.90;;;;;;4977060;28;20451;-69
2022/01/13 06:47:49;;;;;;;34.03;29.00;;;0.70;99.90;;;;;;4976920;28;20984;-69
2022/01/13 06:50:16;;;;;;;35.10;30.07;;;0.80;99.90;;;;;;4977196;28;20556;-68
2022/01/13 06:52:44;;;;;;;33.67;27.87;;;0.80;99.90;;;;;;4977000;28;20455;-69
2022/01/13 06:55:11;;;;;;;35.03;29.20;;;1.00;99.90;;;;;;4979185;28;20483;-70
2022/01/13 06:57:37;;;;;;;36.17;31.43;;;1.00;99.90;;;;;;4977257;28;20455;-69
2022/01/13 07:00:07;;;;;;;36.07;29.80;;;1.10;99.90;;;;;;4977441;28;20459;-69
2022/01/13 07:02:34;;;;;;;35.40;29.13;;;1.10;99.90;;;;;;4976654;28;20483;-70
2022/01/13 07:05:01;;;;;;;34.80;29.00;;;1.10;99.90;;;;;;4977093;28;20455;-69
2022/01/13 07:07:34;;;;;;;34.40;26.87;;;1.10;99.90;;;;;;4976696;28;20951;-69
2022/01/13 07:10:01;;;;;;;36.83;30.27;;;1.20;99.90;;;;;;4977189;28;20439;-69
2022/01/13 07:12:27;;;;;;;35.43;29.17;;;1.10;99.90;;;;;;4978344;28;20475;-69
2022/01/13 07:14:55;;;;;;;31.90;28.13;;;1.10;99.90;;;;;;4977379;28;20474;-69
2022/01/13 07:17:24;;;;;;;32.30;28.80;;;1.10;99.90;;;;;;4979089;28;20938;-68
2022/01/13 07:19:51;;;;;;;32.47;28.50;;;1.10;99.90;;;;;;4979695;28;20462;-68
2022/01/13 07:22:18;;;;;;;36.13;30.17;;;1.10;99.90;;;;;;4976396;28;20479;-68
2022/01/13 07:24:45;;;;;;;32.80;28.13;;;1.10;99.90;;;;;;4977523;28;20856;-69
2022/01/13 07:27:12;;;;;;;34.33;28.83;;;1.20;99.90;;;;;;4977454;28;20827;-69
2022/01/13 07:29:39;;;;;;;32.63;29.10;;;1.20;99.90;;;;;;4976939;28;20497;-69
2022/01/13 07:32:07;;;;;;;34.30;28.10;;;1.20;99.90;;;;;;4978805;28;20483;-69
2022/01/13 07:34:35;;;;;;;33.17;29.57;;;1.20;99.90;;;;;;4979727;28;20483;-69
2022/01/13 07:37:02;;;;;;;38.43;30.60;;;1.20;99.90;;;;;;4978949;28;20435;-69
2022/01/13 07:39:28;;;;;;;34.50;28.33;;;1.10;99.90;;;;;;4978581;28;20798;-70
2022/01/13 07:41:55;;;;;;;35.93;29.03;;;1.10;99.90;;;;;;4977528;28;20475;-69
2022/01/13 07:44:22;;;;;;;33.50;28.70;;;1.00;99.90;;;;;;4977566;28;20780;-68
2022/01/13 07:46:48;;;;;;;35.07;29.77;;;1.00;99.90;;;;;;4976688;28;20467;-69
2022/01/13 07:49:17;;;;;;;36.17;29.63;;;1.00;99.90;;;;;;4978555;28;20838;-69
2022/01/13 07:51:45;;;;;;;39.07;30.90;;;0.90;99.90;;;;;;4977005;28;20883;-68
2022/01/13 07:54:12;;;;;;;37.23;30.57;;;0.90;99.90;;;;;;4977418;28;20464;-68
2022/01/13 07:56:39;;;;;;;39.53;30.07;;;0.80;99.90;;;;;;4981252;28;20458;-69
2022/01/13 07:59:06;;;;;;;35.03;29.70;;;0.80;99.90;;;;;;4976693;28;20499;-69
2022/01/13 08:01:32;;;;;;;34.53;29.03;;;0.80;99.90;;;;;;4981654;28;20514;-68
2022/01/13 08:03:59;;;;;;;34.33;30.20;;;0.90;99.90;;;;;;4976141;28;20459;-68
2022/01/13 08:06:26;;;;;;;33.90;29.07;;;1.00;99.90;;;;;;4977132;28;20824;-68
2022/01/13 08:08:54;;;;;;;33.97;27.90;;;1.10;99.90;;;;;;4975968;28;20455;-67
2022/01/13 08:11:21;;;;;;;34.03;28.50;;;1.00;99.90;;;;;;4976276;28;20475;-68
2022/01/13 08:13:48;;;;;;;35.30;29.30;;;1.00;99.90;;;;;;4976209;28;20459;-67
2022/01/13 08:16:17;;;;;;;33.60;28.10;;;1.00;99.90;;;;;;4976309;28;20459;-67
2022/01/13 08:21:28;;;;;;;35.30;28.83;;;1.10;99.90;;;;;;4976253;28;20964;-67
2022/01/13 08:23:56;;;;;;;33.23;28.80;;;1.00;99.90;;;;;;4975889;28;20451;-68
2022/01/13 08:26:23;;;;;;;38.30;28.77;;;0.90;99.90;;;;;;4975414;28;20455;-68
2022/01/13 08:28:50;;;;;;;33.60;28.87;;;0.90;99.90;;;;;;4975736;28;20462;-68
2022/01/13 08:31:17;;;;;;;33.53;28.80;;;0.90;99.90;;;;;;4975878;28;20479;-67
2022/01/13 08:33:44;;;;;;;34.40;27.87;;;0.90;99.90;;;;;;4975777;28;20459;-67
2022/01/13 08:36:10;;;;;;;34.63;29.40;;;0.70;99.90;;;;;;4975350;28;20440;-67
2022/01/13 08:38:37;;;;;;;36.07;31.90;;;0.70;99.90;;;;;;4975433;28;20439;-68
2022/01/13 08:41:06;;;;;;;35.47;30.07;;;0.70;99.90;;;;;;4976267;28;20473;-66
2022/01/13 08:43:34;;;;;;;43.77;30.80;;;0.60;99.90;;;;;;4976472;28;20545;-66
2022/01/13 08:46:03;;;;;;;33.80;29.20;;;0.70;99.90;;;;;;4975535;28;20447;-67
2022/01/13 08:48:30;;;;;;;37.53;30.70;;;0.80;99.90;;;;;;4977557;28;20455;-67
2022/01/13 08:50:57;;;;;;;35.33;29.43;;;0.80;99.90;;;;;;4981074;28;20470;-67
2022/01/13 08:53:24;;;;;;;35.87;30.37;;;0.90;99.90;;;;;;4975142;28;20462;-66
2022/01/13 08:55:54;;;;;;;35.13;29.23;;;1.00;99.90;;;;;;4975420;28;20482;-66
2022/01/13 08:58:23;;;;;;;31.60;28.13;;;1.00;99.90;;;;;;4979008;28;20448;-66
2022/01/13 09:00:51;;;;;;;37.10;28.73;;;1.10;99.90;;;;;;4974854;28;20541;-66
2022/01/13 09:03:18;;;;;;;36.33;29.73;;;1.10;99.90;;;;;;4975029;28;20454;-66
2022/01/13 09:05:45;;;;;;;35.67;28.63;;;1.20;99.90;;;;;;4975146;28;20455;-66
2022/01/13 09:08:13;;;;;;;33.67;28.03;;;1.20;99.90;;;;;;4974910;28;20455;-65
2022/01/13 09:10:41;;;;;;;33.13;26.90;;;1.30;99.90;;;;;;4974997;28;20485;-65
2022/01/13 09:13:10;;;;;;;33.33;27.00;;;1.30;99.90;;;;;;4975150;28;20469;-65
2022/01/13 09:15:44;;;;;;;36.10;25.13;;;1.40;99.90;;;;;;4974786;28;20467;-66
2022/01/13 09:18:15;;;;;;;32.10;26.87;;;1.40;99.90;;;;;;4975014;28;20471;-65
2022/01/13 09:20:42;;;;;;;36.33;27.60;;;1.40;99.90;;;;;;4974917;28;20479;-66
2022/01/13 09:23:10;;;;;;;37.00;28.13;;;1.50;99.90;;;;;;4974896;28;20455;-66
2022/01/13 09:25:36;;;;;;;34.67;26.50;;;1.50;99.90;;;;;;4975042;28;20462;-66
2022/01/13 09:28:05;;;;;;;29.23;24.80;;;1.50;99.90;;;;;;4975102;28;20462;-66
2022/01/13 09:30:33;;;;;;;26.67;23.20;;;1.60;99.90;;;;;;4974973;28;20459;-66
2022/01/13 09:33:01;;;;;;;29.30;24.73;;;1.70;99.90;;;;;;4975505;28;20466;-66
2022/01/13 09:35:28;;;;;;;34.43;25.27;;;1.80;99.90;;;;;;4977781;28;20474;-66
2022/01/13 09:37:55;;;;;;;29.90;24.27;;;1.90;99.90;;;;;;4977133;28;20463;-66
2022/01/13 09:40:21;;;;;;;27.23;22.90;;;2.00;99.90;;;;;;4974796;28;20946;-67
2022/01/13 09:42:49;;;;;;;23.57;20.00;;;2.10;99.90;;;;;;4976877;28;20458;-66
2022/01/13 09:45:17;;;;;;;19.93;16.77;;;2.30;99.90;;;;;;4976699;28;20451;-67
2022/01/13 09:47:47;;;;;;;14.80;13.20;;;2.50;99.90;;;;;;4977715;28;20868;-68
2022/01/13 09:50:18;;;;;;;13.17;11.83;;;2.90;99.90;;;;;;4978233;28;20459;-67
2022/01/13 09:52:45;;;;;;;20.70;12.13;;;3.20;99.90;;;;;;4978003;28;20459;-68
2022/01/13 09:55:14;;;;;;;13.87;12.10;;;3.40;99.90;;;;;;4978494;28;20831;-69
2022/01/13 09:57:45;;;;;;;16.67;12.53;;;3.60;99.90;;;;;;4978830;28;20784;-67
2022/01/13 10:00:15;;;;;;;19.57;16.77;;;3.90;99.90;;;;;;4979148;28;20435;-68
2022/01/13 10:02:42;;;;;;;20.90;14.80;;;4.30;99.90;;;;;;4978632;28;20535;-67
2022/01/13 10:05:09;;;;;;;16.87;15.03;;;4.60;99.90;;;;;;4979542;28;20457;-69
2022/01/13 10:07:41;;;;;;;16.60;14.63;;;5.10;99.90;;;;;;4978322;28;20840;-67
2022/01/13 10:10:12;;;;;;;19.40;14.07;;;5.90;99.90;;;;;;4978469;28;20513;-68
2022/01/13 10:12:40;;;;;;;17.30;15.40;;;6.60;99.90;;;;;;4979501;28;20494;-67
2022/01/13 10:17:54;;;;;;;16.17;14.37;;;7.60;99.90;;;;;;4980246;28;20418;-67
2022/01/13 10:20:22;;;;;;;18.77;16.77;;;7.40;99.90;;;;;;4979257;28;20858;-66
2022/01/13 10:22:51;;;;;;;17.90;15.53;;;6.70;99.90;;;;;;4982050;28;20486;-66
2022/01/13 10:25:33;;;;;;;20.57;15.93;;;6.30;99.90;;;;;;4983529;28;20451;-66
2022/01/13 10:28:13;;;;;;;18.93;15.20;;;5.90;99.90;;;;;;4979831;28;20467;-66
2022/01/13 10:30:41;;;;;;;17.00;14.80;;;5.70;99.90;;;;;;4984654;28;20475;-66
2022/01/13 10:33:16;;;;;;;20.30;16.50;;;5.40;99.90;;;;;;4981474;28;20464;-66
2022/01/13 10:35:43;;;;;;;19.10;16.30;;;4.90;99.90;;;;;;4979591;28;20478;-66
2022/01/13 10:38:16;;;;;;;19.07;16.93;;;4.80;99.90;;;;;;4983622;28;20455;-66
2022/01/13 10:40:46;;;;;;;17.07;15.17;;;4.80;99.90;;;;;;4977955;28;20525;-67
2022/01/13 10:43:15;;;;;;;17.43;15.53;;;5.50;99.90;;;;;;4979699;28;20448;-67
2022/01/13 10:45:47;;;;;;;16.83;14.93;;;6.60;99.90;;;;;;4982808;28;20452;-67
2022/01/13 10:48:18;;;;;;;16.90;15.10;;;7.80;99.90;;;;;;4983486;28;20444;-67
2022/01/13 10:50:48;;;;;;;16.70;13.53;;;9.20;99.90;;;;;;4979967;28;20482;-68
2022/01/13 10:53:19;;;;;;;16.73;15.00;;;10.20;99.90;;;;;;4981060;28;20447;-66
2022/01/13 10:55:49;;;;;;;15.60;14.00;;;10.80;99.80;;;;;;4984304;28;20828;-67
2022/01/13 10:58:19;;;;;;;14.67;13.27;;;11.50;97.20;;;;;;4980587;28;20456;-66
2022/01/13 11:00:50;;;;;;;17.07;13.93;;;11.80;95.40;;;;;;4979891;28;20492;-66
2022/01/13 11:03:18;;;;;;;17.80;15.60;;;11.70;94.30;;;;;;4978110;28;20538;-67
2022/01/13 11:05:48;;;;;;;15.60;14.00;;;11.20;94.20;;;;;;4977962;28;20520;-68
2022/01/13 11:08:24;;;;;;;16.43;14.70;;;10.70;94.40;;;;;;4979930;28;20459;-68
2022/01/13 11:10:52;;;;;;;15.33;13.83;;;10.10;95.90;;;;;;4978723;28;20486;-67
2022/01/13 11:13:20;;;;;;;14.60;13.10;;;9.50;97.10;;;;;;4979535;28;20528;-67
2022/01/13 11:15:52;;;;;;;15.03;13.50;;;9.00;98.60;;;;;;4976969;28;20463;-66
2022/01/13 11:18:20;;;;;;;15.70;14.10;;;8.50;99.90;;;;;;4978969;28;20443;-67
2022/01/13 11:20:48;;;;;;;15.10;13.50;;;8.20;99.90;;;;;;4978239;28;20471;-66
2022/01/13 11:23:17;;;;;;;14.60;13.07;;;7.80;99.90;;;;;;4979537;28;20459;-66
2022/01/13 11:25:48;;;;;;;16.30;13.37;;;7.50;99.90;;;;;;4980081;28;20439;-67
2022/01/13 11:28:15;;;;;;;14.40;13.00;;;7.10;99.90;;;;;;4977175;28;20455;-66
2022/01/13 11:30:43;;;;;;;14.83;13.33;;;6.90;99.90;;;;;;4977470;28;21006;-67
2022/01/13 11:33:10;;;;;;;14.07;12.67;;;6.60;99.90;;;;;;4976669;28;20459;-69
2022/01/13 11:35:45;;;;;;;15.17;13.30;;;6.50;99.90;;;;;;4977815;28;20486;-68
2022/01/13 11:38:14;;;;;;;13.77;11.97;;;6.40;99.90;;;;;;4977601;28;20462;-65
2022/01/13 11:40:44;;;;;;;14.00;12.60;;;6.50;99.90;;;;;;4975809;28;20534;-66
2022/01/13 11:43:34;;;;;;;13.73;12.30;;;6.70;99.90;;;;;;4975809;28;20938;-65
2022/01/13 11:46:16;;;;;;;15.40;13.30;;;6.80;99.90;;;;;;4975846;28;20828;-66
2022/01/13 11:49:04;;;;;;;16.10;14.40;;;6.80;99.90;;;;;;4976197;28;20443;-66
2022/01/13 11:51:56;;;;;;;15.93;13.60;;;6.80;99.90;;;;;;4975780;28;20471;-67
2022/01/13 11:54:30;;;;;;;15.30;13.80;;;6.60;99.90;;;;;;4976145;28;20910;-68
2022/01/13 11:57:13;;;;;;;13.97;12.50;;;6.40;99.90;;;;;;4976327;28;20462;-68
2022/01/13 12:00:16;;;;;;;16.33;13.67;;;6.30;99.90;;;;;;4976420;28;20444;-65
2022/01/13 12:02:44;;;;;;;14.53;12.90;;;6.20;99.90;;;;;;4975722;28;20454;-66
2022/01/13 12:05:16;;;;;;;18.90;13.00;;;6.20;99.90;;;;;;4975689;28;20811;-66
2022/01/13 12:07:45;;;;;;;13.23;11.93;;;6.10;99.90;;;;;;4975943;28;20439;-66
2022/01/13 12:10:48;;;;;;;15.17;12.80;;;6.10;99.90;;;;;;4975274;28;20931;-66
2022/01/13 12:13:49;;;;;;;13.10;11.70;;;6.00;99.90;;;;;;4975933;28;20826;-66
2022/01/13 12:16:17;;;;;;;19.27;13.43;;;5.90;99.90;;;;;;4916127;29;21007;-66
2022/01/13 12:19:12;;;;;;;14.90;12.03;;;5.80;99.90;;;;;;4921140;29;20797;-67
2022/01/13 12:21:44;;;;;;;14.63;12.43;;;5.70;99.90;;;;;;4958020;28;20479;-66
2022/01/13 12:24:18;;;;;;;15.50;12.33;;;5.70;99.90;;;;;;4981143;28;20439;-66
2022/01/13 12:26:48;;;;;;;14.87;13.03;;;5.70;99.90;;;;;;4976275;28;20503;-66
2022/01/13 12:29:17;;;;;;;15.30;13.13;;;5.70;99.90;;;;;;4975765;28;20455;-66
2022/01/13 12:31:57;;;;;;;13.83;12.27;;;5.70;99.90;;;;;;4975637;28;20482;-66
2022/01/13 12:34:56;;;;;;;14.10;12.13;;;5.80;99.90;;;;;;4975304;28;20450;-66
2022/01/13 12:37:27;;;;;;;17.10;12.80;;;5.80;99.90;;;;;;4970200;28;20487;-67
2022/01/13 12:40:09;;;;;;;15.87;13.10;;;5.80;99.90;;;;;;4975246;28;20455;-67
2022/01/13 12:42:41;;;;;;;15.33;13.27;;;5.80;99.90;;;;;;4975365;28;20482;-66
2022/01/13 12:47:57;;;;;;;15.80;12.10;;;5.80;99.90;;;;;;4975192;28;20423;-67
2022/01/13 12:50:25;;;;;;;14.47;12.83;;;5.70;99.90;;;;;;4975258;28;20462;-66
2022/01/13 12:52:57;;;;;;;14.40;12.67;;;5.70;99.90;;;;;;4975216;28;20451;-65
2022/01/13 12:55:24;;;;;;;13.23;11.83;;;5.70;99.90;;;;;;4974796;28;20475;-66
2022/01/13 12:57:54;;;;;;;13.97;12.47;;;5.80;99.90;;;;;;4975357;28;20459;-66
2022/01/13 13:00:23;;;;;;;15.30;11.77;;;5.60;99.90;;;;;;4975021;28;20459;-65
2022/01/13 13:02:56;;;;;;;14.00;11.20;;;5.70;99.90;;;;;;4975425;28;20922;-66
2022/01/13 13:05:41;;;;;;;13.87;11.97;;;5.60;99.90;;;;;;4975286;28;20443;-65
2022/01/13 13:08:10;;;;;;;12.17;10.80;;;5.60;99.90;;;;;;4975153;28;20911;-66
2022/01/13 13:10:37;;;;;;;14.20;11.50;;;5.60;99.90;;;;;;4975188;28;20479;-66
2022/01/13 13:13:04;;;;;;;14.00;10.40;;;5.60;99.90;;;;;;4975542;28;20946;-67
2022/01/13 13:15:40;;;;;;;13.70;11.23;;;6.20;99.90;;;;;;4974900;28;20998;-64
2022/01/13 13:18:10;;;;;;;15.97;12.47;;;6.50;99.90;;;;;;4974923;28;20443;-64
2022/01/13 13:20:39;;;;;;;14.67;10.90;;;6.70;99.90;;;;;;4974828;28;20483;-65
2022/01/13 13:23:08;;;;;;;12.53;11.33;;;6.80;99.90;;;;;;4978885;28;20455;-65
2022/01/13 13:25:37;;;;;;;11.40;10.20;;;6.90;99.90;;;;;;4979182;28;20941;-66
2022/01/13 13:28:37;;;;;;;13.60;12.03;;;6.70;99.90;;;;;;4979221;28;20462;-66
2022/01/13 13:31:06;;;;;;;11.80;10.60;;;6.70;99.90;;;;;;4919438;29;20509;-66
2022/01/13 13:33:42;;;;;;;13.77;11.30;;;6.90;99.90;;;;;;4969458;28;20812;-66
2022/01/13 13:36:11;;;;;;;14.27;12.60;;;6.90;99.90;;;;;;4980056;28;20475;-69
2022/01/13 13:38:59;;;;;;;14.53;12.70;;;7.00;99.90;;;;;;4979588;28;20465;-69
2022/01/13 13:41:28;;;;;;;13.80;12.40;;;7.00;99.90;;;;;;4980003;28;20475;-69
2022/01/13 13:43:56;;;;;;;14.43;12.93;;;6.90;99.90;;;;;;4979741;28;20518;-69
2022/01/13 13:46:23;;;;;;;16.03;13.40;;;6.80;99.90;;;;;;4980298;28;20836;-69
2022/01/13 13:48:51;;;;;;;13.30;11.80;;;6.80;99.90;;;;;;4979197;28;20497;-69
2022/01/13 13:51:19;;;;;;;19.67;13.70;;;6.70;99.90;;;;;;4980048;28;20485;-69
2022/01/13 13:54:16;;;;;;;13.40;12.00;;;6.50;99.90;;;;;;4980003;28;20465;-68
2022/01/13 13:56:46;;;;;;;14.33;12.50;;;6.40;99.90;;;;;;4978839;28;20521;-68
2022/01/13 13:59:22;;;;;;;14.90;12.80;;;6.40;99.90;;;;;;4978717;28;20439;-67
2022/01/13 14:02:07;;;;;;;15.50;13.60;;;6.40;99.90;;;;;;4979200;28;20905;-68
2022/01/13 14:04:38;;;;;;;16.23;13.00;;;6.30;99.90;;;;;;4978862;28;20443;-68
2022/01/13 14:07:30;;;;;;;13.53;12.10;;;6.20;99.90;;;;;;4979993;28;20436;-69
2022/01/13 14:10:01;;;;;;;15.17;12.40;;;6.20;99.90;;;;;;4980004;28;20975;-68
2022/01/13 14:12:32;;;;;;;14.57;11.70;;;6.30;99.90;;;;;;4979836;28;20474;-67
2022/01/13 14:15:12;;;;;;;13.50;11.93;;;6.30;99.90;;;;;;4979440;28;20482;-68
2022/01/13 14:17:39;;;;;;;13.30;11.40;;;6.30;99.90;;;;;;4978945;28;20522;-68
2022/01/13 14:20:09;;;;;;;15.20;12.33;;;6.20;99.90;;;;;;4980011;28;20793;-68
2022/01/13 14:22:36;;;;;;;13.43;11.03;;;6.30;99.90;;;;;;4978843;28;20482;-69
2022/01/13 14:25:08;;;;;;;15.57;12.00;;;6.30;99.90;;;;;;4978889;28;20942;-69
2022/01/13 14:27:35;;;;;;;15.97;12.00;;;6.30;99.90;;;;;;4978259;28;20440;-68
2022/01/13 14:30:02;;;;;;;14.33;11.50;;;6.30;99.90;;;;;;4978372;28;20481;-68
2022/01/13 14:32:32;;;;;;;13.30;11.87;;;6.40;99.90;;;;;;4978602;28;20475;-68
2022/01/13 14:34:59;;;;;;;13.13;11.73;;;6.40;99.90;;;;;;4978221;28;20505;-68
2022/01/13 14:37:27;;;;;;;12.07;10.63;;;6.40;99.90;;;;;;4977715;28;20482;-68
2022/01/13 14:40:09;;;;;;;13.10;11.27;;;6.40;99.90;;;;;;4977696;28;20455;-68
2022/01/13 14:42:36;;;;;;;14.20;11.77;;;6.40;99.90;;;;;;4978461;28;20848;-69
2022/01/13 14:45:19;;;;;;;12.93;11.53;;;6.50;99.90;;;;;;4978183;28;20459;-69
2022/01/13 14:47:47;;;;;;;15.13;11.43;;;6.60;99.90;;;;;;4977542;28;20862;-69
2022/01/13 14:50:14;;;;;;;13.37;10.90;;;6.60;99.90;;;;;;4977616;28;20463;-69
2022/01/13 14:52:42;;;;;;;12.50;11.07;;;6.70;99.90;;;;;;4977587;28;20479;-69
2022/01/13 14:55:09;;;;;;;13.80;11.70;;;6.70;99.90;;;;;;4978531;28;20498;-69
2022/01/13 14:57:36;;;;;;;13.93;11.80;;;6.70;99.90;;;;;;4978887;28;20474;-69
2022/01/13 15:00:04;;;;;;;17.27;11.33;;;6.70;99.90;;;;;;4978316;28;20481;-69
2022/01/13 15:02:32;;;;;;;14.40;11.43;;;6.60;99.90;;;;;;4977994;28;20485;-69
2022/01/13 15:04:58;;;;;;;15.10;11.70;;;6.50;99.90;;;;;;4976600;28;20455;-69
2022/01/13 15:07:25;;;;;;;12.47;11.07;;;6.40;99.90;;;;;;4977990;28;20477;-69
2022/01/13 15:09:53;;;;;;;17.33;11.60;;;6.30;99.90;;;;;;4979033;28;20459;-69
2022/01/13 15:12:20;;;;;;;13.37;12.03;;;6.40;99.90;;;;;;4977696;28;20486;-69
2022/01/13 15:14:47;;;;;;;14.40;11.33;;;6.40;99.90;;;;;;4978344;28;20483;-68
2022/01/13 15:17:14;;;;;;;13.80;11.10;;;6.40;99.90;;;;;;4980245;28;21060;-69
2022/01/13 15:19:45;;;;;;;14.20;11.20;;;6.30;99.90;;;;;;4979707;28;20456;-68
2022/01/13 15:22:12;;;;;;;14.87;11.00;;;6.20;99.90;;;;;;4979174;28;20483;-68
2022/01/13 15:24:38;;;;;;;14.23;11.50;;;6.20;99.90;;;;;;4979001;28;20458;-69
2022/01/13 15:27:07;;;;;;;15.40;12.07;;;6.20;99.90;;;;;;4977774;28;20494;-68
2022/01/13 15:29:34;;;;;;;16.40;12.60;;;6.10;99.90;;;;;;4980850;28;20459;-69
2022/01/13 15:32:01;;;;;;;12.17;10.97;;;6.10;99.90;;;;;;4982480;28;20483;-68
2022/01/13 15:34:28;;;;;;;16.00;11.83;;;6.10;99.90;;;;;;4977202;28;20926;-68
2022/01/13 15:36:54;;;;;;;12.80;11.33;;;6.10;99.90;;;;;;4978358;28;20486;-68
2022/01/13 15:39:21;;;;;;;17.13;11.80;;;6.10;99.90;;;;;;4977060;28;20469;-68
2022/01/13 15:41:49;;;;;;;15.73;12.57;;;6.10;99.90;;;;;;4976612;28;20669;-68
2022/01/13 15:44:17;;;;;;;18.40;12.37;;;6.10;99.90;;;;;;4976657;28;20534;-68
2022/01/13 15:46:44;;;;;;;15.77;12.87;;;6.00;99.90;;;;;;4976380;28;20470;-68
2022/01/13 15:49:10;;;;;;;15.13;12.60;;;6.00;99.90;;;;;;4977150;28;20943;-68
2022/01/13 15:51:37;;;;;;;14.90;11.90;;;5.90;99.90;;;;;;4976515;28;20475;-68
2022/01/13 15:54:04;;;;;;;15.07;11.37;;;5.90;99.90;;;;;;4976793;28;20474;-68
2022/01/13 15:56:31;;;;;;;15.53;12.77;;;5.80;99.90;;;;;;4977478;28;20482;-69
2022/01/13 15:58:57;;;;;;;16.90;13.97;;;5.80;99.90;;;;;;4978439;28;20810;-69
2022/01/13 16:01:26;;;;;;;17.30;12.87;;;5.80;99.90;;;;;;4976312;28;20862;-70
2022/01/13 16:03:53;;;;;;;14.93;13.30;;;5.70;99.90;;;;;;4977971;28;20546;-70
2022/01/13 16:06:22;;;;;;;15.60;13.23;;;5.70;99.90;;;;;;4977430;28;20498;-69
2022/01/13 16:08:49;;;;;;;18.67;13.03;;;5.60;99.90;;;;;;4977899;28;20439;-69
2022/01/13 16:11:16;;;;;;;16.70;13.20;;;5.60;99.90;;;;;;4978822;28;21021;-69
2022/01/13 16:13:44;;;;;;;18.83;13.40;;;5.50;99.90;;;;;;4978536;28;20451;-69
2022/01/13 16:16:12;;;;;;;18.60;12.83;;;5.50;99.90;;;;;;4978612;28;20447;-69
2022/01/13 16:18:40;;;;;;;19.13;14.27;;;5.40;99.90;;;;;;4976551;28;20443;-69
2022/01/13 16:21:07;;;;;;;19.77;15.67;;;5.30;99.90;;;;;;4978530;28;20475;-69
2022/01/13 16:23:34;;;;;;;15.93;13.83;;;5.30;99.90;;;;;;4976167;28;20977;-69
2022/01/13 16:26:01;;;;;;;19.23;14.23;;;5.20;99.90;;;;;;4976494;28;20461;-68
2022/01/13 16:28:28;;;;;;;18.73;15.90;;;5.20;99.90;;;;;;4976319;28;20451;-70
2022/01/13 16:30:55;;;;;;;17.23;14.27;;;5.10;99.90;;;;;;4976217;28;20479;-70
2022/01/13 16:33:22;;;;;;;18.67;14.20;;;5.00;99.90;;;;;;4975803;28;20949;-70
2022/01/13 16:35:50;;;;;;;16.10;14.40;;;5.00;99.90;;;;;;4975843;28;20470;-69
2022/01/13 16:38:17;;;;;;;21.50;14.17;;;4.90;99.90;;;;;;4977922;28;20490;-69
2022/01/13 16:40:44;;;;;;;19.50;14.87;;;4.90;99.90;;;;;;4976752;28;20479;-68
2022/01/13 16:43:15;;;;;;;18.40;13.27;;;4.80;99.90;;;;;;4976866;28;20459;-68
2022/01/13 16:45:42;;;;;;;18.00;13.80;;;4.80;99.90;;;;;;4977306;28;20445;-69
2022/01/13 16:48:15;;;;;;;16.20;13.83;;;4.80;99.90;;;;;;4979350;28;20451;-70
2022/01/13 16:50:42;;;;;;;15.90;14.20;;;4.70;99.90;;;;;;4976923;28;20485;-70
2022/01/13 16:53:11;;;;;;;18.87;15.80;;;4.60;99.90;;;;;;4976770;28;20447;-68
2022/01/13 16:55:39;;;;;;;20.30;15.57;;;4.60;99.90;;;;;;4975937;28;20482;-68
2022/01/13 16:58:06;;;;;;;23.47;17.07;;;4.60;99.90;;;;;;4980130;28;20483;-69
2022/01/13 17:00:33;;;;;;;17.73;15.23;;;4.60;99.90;;;;;;4980156;28;20475;-70
2022/01/13 17:03:01;;;;;;;17.70;15.67;;;4.60;99.90;;;;;;4979442;28;20439;-69
2022/01/13 17:05:27;;;;;;;18.17;15.50;;;4.60;99.90;;;;;;4979191;28;20454;-68
2022/01/13 17:07:54;;;;;;;22.67;16.40;;;4.60;99.90;;;;;;4979582;28;20510;-69
2022/01/13 17:10:28;;;;;;;23.27;16.40;;;4.50;99.90;;;;;;4979853;28;20461;-68
2022/01/13 17:12:55;;;;;;;18.23;15.57;;;4.50;99.90;;;;;;4979179;28;20439;-67
2022/01/13 17:15:22;;;;;;;17.53;14.90;;;4.50;99.90;;;;;;4978939;28;20450;-69
2022/01/13 17:17:49;;;;;;;17.47;14.17;;;4.50;99.90;;;;;;4979344;28;20486;-68
2022/01/13 17:20:16;;;;;;;20.30;14.97;;;4.50;99.90;;;;;;4979665;28;20828;-67
2022/01/13 17:22:43;;;;;;;19.10;14.10;;;4.40;99.90;;;;;;4980543;28;20474;-68
2022/01/13 17:25:13;;;;;;;25.70;15.63;;;4.40;99.90;;;;;;4980352;28;20486;-67
2022/01/13 17:27:42;;;;;;;20.90;15.67;;;4.40;99.90;;;;;;4983137;28;20435;-70
2022/01/13 17:30:12;;;;;;;18.33;14.57;;;4.40;99.90;;;;;;4979805;28;20469;-69
2022/01/13 17:32:39;;;;;;;20.03;15.10;;;4.30;99.90;;;;;;4979321;28;20479;-68
2022/01/13 17:35:06;;;;;;;17.93;15.93;;;4.30;99.90;;;;;;4979215;28;20463;-68
2022/01/13 17:37:37;;;;;;;20.37;15.40;;;4.20;99.90;;;;;;4981114;28;20466;-69
2022/01/13 17:40:05;;;;;;;18.63;14.93;;;4.20;99.90;;;;;;4978957;28;20493;-68
2022/01/13 17:42:32;;;;;;;19.03;14.63;;;4.10;99.90;;;;;;4978695;28;20533;-68
2022/01/13 17:45:00;;;;;;;21.30;16.70;;;4.10;99.90;;;;;;4978713;28;20462;-68
2022/01/13 17:47:27;;;;;;;19.23;15.27;;;4.10;99.90;;;;;;4979398;28;20462;-68
2022/01/13 17:49:53;;;;;;;23.83;15.67;;;4.10;99.90;;;;;;4979585;28;20462;-68
2022/01/13 17:52:21;;;;;;;17.90;14.17;;;4.10;99.90;;;;;;4978458;28;20478;-69
2022/01/13 17:54:47;;;;;;;21.73;17.50;;;4.10;99.90;;;;;;4980015;28;20457;-67
2022/01/13 17:57:14;;;;;;;21.40;16.10;;;4.10;99.90;;;;;;4978602;28;20549;-68